createdAt,value
2023-08-17T00:01:13.104Z,14.30
2023-08-17T00:03:39.679Z,14.90
2023-08-17T00:06:06.566Z,16.30
2023-08-17T00:08:33.047Z,14.00
2023-08-17T00:10:59.498Z,14.90
2023-08-17T00:13:25.907Z,16.40
2023-08-17T00:15:52.371Z,15.10
2023-08-17T00:18:18.872Z,14.70
2023-08-17T00:20:45.551Z,15.80
2023-08-17T00:23:12.049Z,16.20
2023-08-17T00:25:38.576Z,15.00
2023-08-17T00:28:05.661Z,17.00
2023-08-17T00:30:32.162Z,14.50
2023-08-17T00:32:58.598Z,14.40
2023-08-17T00:35:25.008Z,16.50
2023-08-17T00:37:51.426Z,17.20
2023-08-17T00:40:17.853Z,16.80
2023-08-17T00:42:44.296Z,15.00
2023-08-17T00:45:11.098Z,15.70
2023-08-17T00:47:38.272Z,15.60
2023-08-17T00:50:05.608Z,14.30
2023-08-17T00:52:34.306Z,15.10
2023-08-17T00:55:03.199Z,15.50
2023-08-17T00:57:29.656Z,15.10
2023-08-17T01:00:04.880Z,15.30
2023-08-17T01:02:28.103Z,14.60
2023-08-17T01:04:54.722Z,18.40
2023-08-17T01:07:22.051Z,18.00
2023-08-17T01:09:48.654Z,16.20
2023-08-17T01:12:25.628Z,17.70
2023-08-17T01:15:03.239Z,16.50
2023-08-17T01:17:45.143Z,16.50
2023-08-17T01:20:15.057Z,15.20
2023-08-17T01:22:43.826Z,14.90
2023-08-17T01:25:10.582Z,16.00
2023-08-17T01:27:46.056Z,14.70
2023-08-17T01:30:17.584Z,12.80
2023-08-17T01:33:03.350Z,14.80
2023-08-17T01:35:46.940Z,17.00
2023-08-17T01:38:21.004Z,15.50
2023-08-17T01:40:50.058Z,16.90
2023-08-17T01:43:18.057Z,15.30
2023-08-17T01:45:45.215Z,14.80
2023-08-17T01:48:11.921Z,12.80
2023-08-17T01:50:38.444Z,15.00
2023-08-17T01:53:05.078Z,15.80
2023-08-17T01:55:31.548Z,15.20
2023-08-17T01:57:57.980Z,14.20
2023-08-17T02:00:24.405Z,15.30
2023-08-17T02:02:50.833Z,14.20
2023-08-17T02:05:17.266Z,13.70
2023-08-17T02:07:43.723Z,16.80
2023-08-17T02:10:10.686Z,14.60
2023-08-17T02:12:37.093Z,14.60
2023-08-17T02:15:03.757Z,14.10
2023-08-17T02:17:30.409Z,15.80
2023-08-17T02:19:56.821Z,15.40
2023-08-17T02:22:23.261Z,14.80
2023-08-17T02:24:49.654Z,15.80
2023-08-17T02:27:16.112Z,16.00
2023-08-17T02:29:42.572Z,13.80
2023-08-17T02:32:09.018Z,16.10
2023-08-17T02:34:35.431Z,14.30
2023-08-17T02:39:28.129Z,13.80
2023-08-17T02:41:54.545Z,15.00
2023-08-17T02:44:22.089Z,14.40
2023-08-17T02:46:48.528Z,16.10
2023-08-17T02:49:14.959Z,15.20
2023-08-17T02:51:41.448Z,16.40
2023-08-17T02:54:08.316Z,15.70
2023-08-17T02:56:34.790Z,15.70
2023-08-17T02:59:01.215Z,14.60
2023-08-17T03:01:27.744Z,14.60
2023-08-17T03:03:54.182Z,15.30
2023-08-17T03:06:20.591Z,16.90
2023-08-17T03:08:47.021Z,14.60
2023-08-17T03:11:13.519Z,14.70
2023-08-17T03:13:40.309Z,15.40
2023-08-17T03:16:06.796Z,22.00
2023-08-17T03:18:33.244Z,19.20
2023-08-17T03:20:59.682Z,20.10
2023-08-17T03:23:26.155Z,24.70
2023-08-17T03:25:55.919Z,21.90
2023-08-17T03:28:22.522Z,19.80
2023-08-17T03:30:49.081Z,22.60
2023-08-17T03:33:15.545Z,17.50
2023-08-17T03:35:41.994Z,14.80
2023-08-17T03:38:08.395Z,15.40
2023-08-17T03:40:34.807Z,16.60
2023-08-17T03:43:01.238Z,15.80
2023-08-17T03:45:27.620Z,15.20
2023-08-17T03:47:54.506Z,17.50
2023-08-17T03:50:20.928Z,15.90
2023-08-17T03:52:47.323Z,14.10
2023-08-17T03:55:13.806Z,16.20
2023-08-17T03:57:40.296Z,17.50
2023-08-17T04:00:08.226Z,15.90
2023-08-17T04:02:34.689Z,15.60
2023-08-17T04:05:01.224Z,15.70
2023-08-17T04:07:28.087Z,15.40
2023-08-17T04:09:54.709Z,15.90
2023-08-17T04:12:21.161Z,15.50
2023-08-17T04:14:47.757Z,13.10
2023-08-17T04:17:14.273Z,19.00
2023-08-17T04:19:40.802Z,14.70
2023-08-17T04:22:07.437Z,13.30
2023-08-17T04:24:33.962Z,14.90
2023-08-17T04:27:00.945Z,13.80
2023-08-17T04:29:27.364Z,14.10
2023-08-17T04:31:54.321Z,16.60
2023-08-17T04:34:21.165Z,14.10
2023-08-17T04:36:47.690Z,15.60
2023-08-17T04:39:14.280Z,13.60
2023-08-17T04:41:40.810Z,13.10
2023-08-17T04:44:07.305Z,14.50
2023-08-17T04:46:34.023Z,13.30
2023-08-17T04:49:00.493Z,14.70
2023-08-17T04:51:26.960Z,13.00
2023-08-17T04:53:54.073Z,13.30
2023-08-17T04:56:21.776Z,15.20
2023-08-17T04:58:48.258Z,13.90
2023-08-17T05:01:15.158Z,14.40
2023-08-17T05:03:41.829Z,12.30
2023-08-17T05:06:08.501Z,11.90
2023-08-17T05:08:34.918Z,12.70
2023-08-17T05:11:01.322Z,14.50
2023-08-17T05:13:27.876Z,12.70
2023-08-17T05:15:54.809Z,12.90
2023-08-17T05:18:22.404Z,12.50
2023-08-17T05:20:49.027Z,13.70
2023-08-17T05:23:15.448Z,11.50
2023-08-17T05:25:41.840Z,11.30
2023-08-17T05:28:08.392Z,10.70
2023-08-17T05:30:34.811Z,12.80
2023-08-17T05:33:01.283Z,11.20
2023-08-17T05:35:27.736Z,11.60
2023-08-17T05:37:54.170Z,15.00
2023-08-17T05:40:20.615Z,13.50
2023-08-17T05:42:47.079Z,13.10
2023-08-17T05:45:13.686Z,13.70
2023-08-17T05:47:40.149Z,12.10
2023-08-17T05:50:07.399Z,13.30
2023-08-17T05:52:33.936Z,12.10
2023-08-17T05:55:00.514Z,13.60
2023-08-17T05:57:27.280Z,12.20
2023-08-17T05:59:54.110Z,11.60
2023-08-17T06:02:20.542Z,12.80
2023-08-17T06:04:48.930Z,13.10
2023-08-17T06:07:15.455Z,12.30
2023-08-17T06:09:42.108Z,15.40
2023-08-17T06:12:08.607Z,14.50
2023-08-17T06:14:35.320Z,14.60
2023-08-17T06:17:02.001Z,12.00
2023-08-17T06:19:28.417Z,13.30
2023-08-17T06:21:54.925Z,13.60
2023-08-17T06:24:21.662Z,13.70
2023-08-17T06:26:48.134Z,12.70
2023-08-17T06:29:14.531Z,14.20
2023-08-17T06:31:40.976Z,12.50
2023-08-17T06:34:07.454Z,13.60
2023-08-17T06:36:34.219Z,13.10
2023-08-17T06:39:01.333Z,13.50
2023-08-17T06:41:27.923Z,13.20
2023-08-17T06:43:54.330Z,15.50
2023-08-17T06:46:20.884Z,15.80
2023-08-17T06:48:47.367Z,16.30
2023-08-17T06:51:13.776Z,14.90
2023-08-17T06:53:40.425Z,14.10
2023-08-17T06:56:07.113Z,12.60
2023-08-17T06:58:33.546Z,15.00
2023-08-17T07:00:59.967Z,15.20
2023-08-17T07:03:26.431Z,13.70
2023-08-17T07:05:52.966Z,13.70
2023-08-17T07:08:19.419Z,14.30
2023-08-17T07:10:46.258Z,12.70
2023-08-17T07:13:12.745Z,15.30
2023-08-17T07:15:39.187Z,12.90
2023-08-17T07:18:05.725Z,16.40
2023-08-17T07:20:32.161Z,14.80
2023-08-17T07:22:58.982Z,14.40
2023-08-17T07:25:26.249Z,14.00
2023-08-17T07:27:52.671Z,14.90
2023-08-17T07:30:19.133Z,14.80
2023-08-17T07:32:45.570Z,14.50
2023-08-17T07:35:12.293Z,13.80
2023-08-17T07:37:38.804Z,13.20
2023-08-17T07:40:06.114Z,13.70
2023-08-17T07:42:32.778Z,14.00
2023-08-17T07:44:59.300Z,13.50
2023-08-17T07:47:26.238Z,15.40
2023-08-17T07:49:53.353Z,14.20
2023-08-17T07:52:19.874Z,16.10
2023-08-17T07:54:47.098Z,15.20
2023-08-17T07:57:13.558Z,13.10
2023-08-17T07:59:39.971Z,14.00
2023-08-17T08:02:07.015Z,14.30
2023-08-17T08:04:33.424Z,15.00
2023-08-17T08:07:00.100Z,13.60
2023-08-17T08:09:26.487Z,13.00
2023-08-17T08:11:52.923Z,14.50
2023-08-17T08:14:19.397Z,13.80
2023-08-17T08:16:45.861Z,14.80
2023-08-17T08:19:12.380Z,16.20
2023-08-17T08:21:39.180Z,15.00
2023-08-17T08:24:10.393Z,15.70
2023-08-17T08:26:40.781Z,13.30
2023-08-17T08:29:07.213Z,16.10
2023-08-17T08:31:33.671Z,15.90
2023-08-17T08:34:00.759Z,14.80
2023-08-17T08:36:27.174Z,15.60
2023-08-17T08:38:53.828Z,14.50
2023-08-17T08:41:20.802Z,17.50
2023-08-17T08:43:47.980Z,17.30
2023-08-17T08:46:19.004Z,16.20
2023-08-17T08:48:51.681Z,15.80
2023-08-17T08:51:29.076Z,14.60
2023-08-17T08:54:04.560Z,13.80
2023-08-17T08:56:39.095Z,17.10
2023-08-17T08:59:05.848Z,14.60
2023-08-17T09:01:33.602Z,17.30
2023-08-17T09:04:01.901Z,18.20
2023-08-17T09:06:30.304Z,14.40
2023-08-17T09:08:59.106Z,16.60
2023-08-17T09:11:25.598Z,18.20
2023-08-17T09:13:54.433Z,19.40
2023-08-17T09:16:23.005Z,16.00
2023-08-17T09:18:55.123Z,17.50
2023-08-17T09:21:24.472Z,17.70
2023-08-17T09:26:25.702Z,17.80
2023-08-17T09:28:55.262Z,19.10
2023-08-17T09:31:25.368Z,17.30
2023-08-17T09:33:52.726Z,16.00
2023-08-17T09:36:23.836Z,18.10
2023-08-17T09:38:52.472Z,18.40
2023-08-17T09:41:20.039Z,16.90
2023-08-17T09:43:48.146Z,17.50
2023-08-17T09:46:16.158Z,16.80
2023-08-17T09:48:46.654Z,18.70
2023-08-17T09:51:17.441Z,17.50
2023-08-17T09:53:44.055Z,18.00
2023-08-17T09:58:44.194Z,19.30
2023-08-17T10:01:12.106Z,18.50
2023-08-17T10:03:47.250Z,17.30
2023-08-17T10:06:26.748Z,17.10
2023-08-17T10:08:55.666Z,18.60
2023-08-17T10:11:24.315Z,18.60
2023-08-17T10:16:47.075Z,19.40
2023-08-17T10:19:44.506Z,19.90
2023-08-17T10:22:20.978Z,17.20
2023-08-17T10:24:48.424Z,18.60
2023-08-17T10:27:14.942Z,17.30
2023-08-17T10:29:44.340Z,21.30
2023-08-17T10:32:16.704Z,19.40
2023-08-17T10:34:44.620Z,17.60
2023-08-17T10:37:12.851Z,18.00
2023-08-17T10:39:47.394Z,16.30
2023-08-17T10:42:20.783Z,16.80
2023-08-17T10:44:50.422Z,18.10
2023-08-17T10:47:26.633Z,16.70
2023-08-17T10:50:02.700Z,16.70
2023-08-17T10:52:36.426Z,21.50
2023-08-17T10:55:06.276Z,19.70
2023-08-17T10:57:38.349Z,17.10
2023-08-17T11:00:30.783Z,16.10
2023-08-17T11:03:04.957Z,19.40
2023-08-17T11:05:54.994Z,16.80
2023-08-17T11:08:51.439Z,18.50
2023-08-17T11:11:22.554Z,17.50
2023-08-17T11:13:50.022Z,16.70
2023-08-17T11:16:20.611Z,16.60
2023-08-17T11:18:54.471Z,17.20
2023-08-17T11:21:21.495Z,16.30
2023-08-17T11:23:49.595Z,17.70
2023-08-17T11:26:20.421Z,19.10
2023-08-17T11:28:48.516Z,18.20
2023-08-17T11:31:17.008Z,17.90
2023-08-17T11:33:45.861Z,18.20
2023-08-17T11:36:12.832Z,18.20
2023-08-17T11:38:44.776Z,20.30
2023-08-17T11:43:43.634Z,19.30
2023-08-17T11:46:10.186Z,16.70
2023-08-17T11:48:38.048Z,26.30
2023-08-17T11:51:05.367Z,18.20
2023-08-17T11:53:42.402Z,17.70
2023-08-17T11:56:11.303Z,16.80
2023-08-17T11:58:46.788Z,16.50
2023-08-17T12:01:19.704Z,17.90
2023-08-17T12:03:46.986Z,18.40
2023-08-17T12:06:15.025Z,16.50
2023-08-17T12:08:49.608Z,23.00
2023-08-17T12:11:25.027Z,18.70
2023-08-17T12:13:53.278Z,18.30
2023-08-17T12:16:23.920Z,18.20
2023-08-17T12:18:54.308Z,16.80
2023-08-17T12:21:29.478Z,16.50
2023-08-17T12:23:56.180Z,16.60
2023-08-17T12:26:23.155Z,16.20
2023-08-17T12:28:50.947Z,16.60
2023-08-17T12:31:23.700Z,15.30
2023-08-17T12:33:53.463Z,15.80
2023-08-17T12:36:21.541Z,18.40
2023-08-17T12:38:49.250Z,16.20
2023-08-17T12:41:16.048Z,16.50
2023-08-17T12:43:42.486Z,21.40
2023-08-17T12:46:08.925Z,20.30
2023-08-17T12:48:36.864Z,15.30
2023-08-17T12:53:29.518Z,14.90
2023-08-17T12:55:56.587Z,14.60
2023-08-17T12:58:23.369Z,18.70
2023-08-17T13:00:54.490Z,15.40
2023-08-17T13:03:21.668Z,15.30
2023-08-17T13:05:48.230Z,13.70
2023-08-17T13:08:14.773Z,16.20
2023-08-17T13:10:41.346Z,14.00
2023-08-17T13:13:07.874Z,15.50
2023-08-17T13:15:34.775Z,15.00
2023-08-17T13:18:02.268Z,15.70
2023-08-17T13:20:28.828Z,18.00
2023-08-17T13:22:55.313Z,13.20
2023-08-17T13:25:21.840Z,17.20
2023-08-17T13:27:48.281Z,13.40
2023-08-17T13:30:14.849Z,12.20
2023-08-17T13:32:44.028Z,15.00
2023-08-17T13:35:11.518Z,12.60
2023-08-17T13:37:38.927Z,12.50
2023-08-17T13:40:06.267Z,12.40
2023-08-17T13:42:36.472Z,13.10
2023-08-17T13:45:05.424Z,11.20
2023-08-17T13:47:31.880Z,14.20
2023-08-17T13:49:59.432Z,10.80
2023-08-17T13:52:26.511Z,13.20
2023-08-17T13:54:57.415Z,11.30
2023-08-17T13:57:23.912Z,11.80
2023-08-17T13:59:50.425Z,10.50
2023-08-17T14:02:16.840Z,10.60
2023-08-17T14:04:43.294Z,11.30
2023-08-17T14:07:09.708Z,11.90
2023-08-17T14:09:36.166Z,12.10
2023-08-17T14:12:03.279Z,10.80
2023-08-17T14:14:29.776Z,9.70
2023-08-17T14:16:56.505Z,11.10
2023-08-17T14:19:23.075Z,11.20
2023-08-17T14:21:49.728Z,10.70
2023-08-17T14:24:36.681Z,12.00
2023-08-17T14:27:03.263Z,9.80
2023-08-17T14:29:29.708Z,10.70
2023-08-17T14:31:56.506Z,14.10
2023-08-17T14:34:23.955Z,11.40
2023-08-17T14:36:50.447Z,10.80
2023-08-17T14:39:17.045Z,13.30
2023-08-17T14:41:46.563Z,11.70
2023-08-17T14:44:13.230Z,11.20
2023-08-17T14:46:43.581Z,14.10
2023-08-17T14:49:10.244Z,16.70
2023-08-17T14:51:40.064Z,13.10
2023-08-17T14:54:08.961Z,11.90
2023-08-17T14:56:35.565Z,11.80
2023-08-17T14:59:03.003Z,11.10
2023-08-17T15:01:31.187Z,13.20
2023-08-17T15:03:57.687Z,13.30
2023-08-17T15:06:34.234Z,10.40
2023-08-17T15:11:33.343Z,12.30
2023-08-17T15:13:59.962Z,12.30
2023-08-17T15:16:28.306Z,9.80
2023-08-17T15:18:55.633Z,9.80
2023-08-17T15:21:22.829Z,9.70
2023-08-17T15:23:49.439Z,10.80
2023-08-17T15:26:16.004Z,10.80
2023-08-17T15:28:42.871Z,17.80
2023-08-17T15:31:14.287Z,10.00
2023-08-17T15:33:41.728Z,10.40
2023-08-17T15:36:08.570Z,10.60
2023-08-17T15:38:35.169Z,10.80
2023-08-17T15:43:55.577Z,10.60
2023-08-17T15:46:22.047Z,14.40
2023-08-17T15:49:06.743Z,9.80
2023-08-17T15:51:33.150Z,11.90
2023-08-17T15:53:59.528Z,15.70
2023-08-17T15:56:25.976Z,19.10
2023-08-17T15:58:52.561Z,13.70
2023-08-17T16:01:43.832Z,9.80
2023-08-17T16:04:10.269Z,9.70
2023-08-17T16:06:36.830Z,12.20
2023-08-17T16:11:37.984Z,11.40
2023-08-17T16:14:06.344Z,12.50
2023-08-17T16:16:34.014Z,13.00
2023-08-17T16:19:04.468Z,10.60
2023-08-17T16:21:55.661Z,11.00
2023-08-17T16:24:26.533Z,17.10
2023-08-17T16:26:53.683Z,12.40
2023-08-17T16:29:44.750Z,12.00
2023-08-17T16:32:11.280Z,10.30
2023-08-17T16:34:37.769Z,9.00
2023-08-17T16:39:56.027Z,10.10
2023-08-17T16:42:22.490Z,10.00
2023-08-17T16:44:48.883Z,10.70
2023-08-17T16:47:19.784Z,10.20
2023-08-17T16:49:56.566Z,12.00
2023-08-17T16:52:23.877Z,9.30
2023-08-17T16:54:50.291Z,7.90
2023-08-17T16:57:16.773Z,8.50
2023-08-17T17:02:30.329Z,8.60
2023-08-17T17:04:56.788Z,9.10
2023-08-17T17:07:23.256Z,12.70
2023-08-17T17:09:50.234Z,11.10
2023-08-17T17:12:42.186Z,10.20
2023-08-17T17:15:09.325Z,9.90
2023-08-17T17:17:36.101Z,9.60
2023-08-17T17:23:03.832Z,11.60
2023-08-17T17:25:30.321Z,9.50
2023-08-17T17:28:38.004Z,18.80
2023-08-17T17:31:07.406Z,14.40
2023-08-17T17:33:58.844Z,15.20
2023-08-17T17:36:25.504Z,20.40
2023-08-17T17:38:52.016Z,21.90
2023-08-17T17:41:18.500Z,16.20
2023-08-17T17:43:44.980Z,17.20
2023-08-17T17:46:11.438Z,15.60
2023-08-17T17:48:37.930Z,11.90
2023-08-17T17:53:31.585Z,12.10
2023-08-17T17:55:58.179Z,13.10
2023-08-17T17:58:24.727Z,9.50
2023-08-17T18:00:51.305Z,10.80
2023-08-17T18:03:17.921Z,10.00
2023-08-17T18:05:46.561Z,9.50
2023-08-17T18:08:13.284Z,11.70
2023-08-17T18:10:44.499Z,10.60
2023-08-17T18:13:11.070Z,9.80
2023-08-17T18:15:39.436Z,8.80
2023-08-17T18:18:07.042Z,8.20
2023-08-17T18:20:34.164Z,9.00
2023-08-17T18:23:00.667Z,8.60
2023-08-17T18:25:27.454Z,7.60
2023-08-17T18:27:53.995Z,9.30
2023-08-17T18:30:20.437Z,9.20
2023-08-17T18:32:47.005Z,9.40
2023-08-17T18:35:13.567Z,8.40
2023-08-17T18:37:41.765Z,9.50
2023-08-17T18:40:10.657Z,11.20
2023-08-17T18:42:37.157Z,9.60
2023-08-17T18:45:04.041Z,9.30
2023-08-17T18:47:30.679Z,9.70
2023-08-17T18:49:57.167Z,11.50
2023-08-17T18:52:25.121Z,9.00
2023-08-17T18:55:03.965Z,9.50
2023-08-17T18:57:33.780Z,13.60
2023-08-17T19:00:02.117Z,11.10
2023-08-17T19:02:28.814Z,10.40
2023-08-17T19:04:55.330Z,13.90
2023-08-17T19:07:23.462Z,13.20
2023-08-17T19:09:50.199Z,13.40
2023-08-17T19:12:18.501Z,14.40
2023-08-17T19:14:46.556Z,12.10
2023-08-17T19:17:13.568Z,10.60
2023-08-17T19:19:41.718Z,11.40
2023-08-17T19:22:08.644Z,11.50
2023-08-17T19:24:35.352Z,13.60
2023-08-17T19:27:01.956Z,13.00
2023-08-17T19:29:29.474Z,14.00
2023-08-17T19:31:56.129Z,13.80
2023-08-17T19:34:22.688Z,11.30
2023-08-17T19:36:49.227Z,12.30
2023-08-17T19:39:15.717Z,12.90
2023-08-17T19:41:44.437Z,11.60
2023-08-17T19:44:11.026Z,13.90
2023-08-17T19:46:37.717Z,13.40
2023-08-17T19:51:31.251Z,13.30
2023-08-17T19:53:57.773Z,13.40
2023-08-17T19:56:24.356Z,11.30
2023-08-17T19:58:50.759Z,11.50
2023-08-17T20:01:18.497Z,13.30
2023-08-17T20:03:49.516Z,12.00
2023-08-17T20:06:16.351Z,14.10
2023-08-17T20:08:43.764Z,12.60
2023-08-17T20:11:12.619Z,13.30
2023-08-17T20:13:39.261Z,12.40
2023-08-17T20:16:06.625Z,13.60
2023-08-17T20:18:33.251Z,15.80
2023-08-17T20:21:03.165Z,13.30
2023-08-17T20:23:29.622Z,12.60
2023-08-17T20:25:57.566Z,15.50
2023-08-17T20:28:24.610Z,14.10
2023-08-17T20:31:00.910Z,16.20
2023-08-17T20:33:28.057Z,16.00
2023-08-17T20:35:55.982Z,15.40
2023-08-17T20:38:24.096Z,17.00
2023-08-17T20:40:51.736Z,14.90
2023-08-17T20:43:19.288Z,14.40
2023-08-17T20:45:46.472Z,15.10
2023-08-17T20:48:13.298Z,13.00
2023-08-17T20:50:41.424Z,15.70
2023-08-17T20:53:09.055Z,14.60
2023-08-17T20:55:40.120Z,13.70
2023-08-17T20:58:07.574Z,16.20
2023-08-17T21:00:36.804Z,16.00
2023-08-17T21:05:31.345Z,15.50
2023-08-17T21:07:58.352Z,17.80
2023-08-17T21:10:25.396Z,18.40
2023-08-17T21:12:52.172Z,13.50
2023-08-17T21:15:18.715Z,14.30
2023-08-17T21:17:46.519Z,13.40
2023-08-17T21:20:13.816Z,17.70
2023-08-17T21:22:47.138Z,12.10
2023-08-17T21:25:13.637Z,14.00
2023-08-17T21:27:40.272Z,15.90
2023-08-17T21:30:07.983Z,14.20
2023-08-17T21:32:34.688Z,17.00
2023-08-17T21:35:01.220Z,13.10
2023-08-17T21:37:29.507Z,18.80
2023-08-17T21:39:56.445Z,19.40
2023-08-17T21:42:23.103Z,15.80
2023-08-17T21:44:50.842Z,16.60
2023-08-17T21:47:17.523Z,18.00
2023-08-17T21:49:47.965Z,14.20
2023-08-17T21:52:16.588Z,15.30
2023-08-17T21:54:43.186Z,16.80
2023-08-17T21:57:09.850Z,19.20
2023-08-17T21:59:36.349Z,18.60
2023-08-17T22:02:03.992Z,17.20
2023-08-17T22:04:33.438Z,15.00
2023-08-17T22:07:03.027Z,15.80
2023-08-17T22:09:30.737Z,16.40
2023-08-17T22:11:57.199Z,16.20
2023-08-17T22:14:23.746Z,14.40
2023-08-17T22:16:50.468Z,17.80
2023-08-17T22:19:17.279Z,13.30
2023-08-17T22:21:43.781Z,15.40
2023-08-17T22:24:10.230Z,15.10
2023-08-17T22:26:36.718Z,18.80
2023-08-17T22:29:04.482Z,17.00
2023-08-17T22:31:32.273Z,16.60
2023-08-17T22:33:58.685Z,15.60
2023-08-17T22:36:25.271Z,15.00
2023-08-17T22:38:51.766Z,16.90
2023-08-17T22:41:18.188Z,15.00
2023-08-17T22:43:44.854Z,15.40
2023-08-17T22:46:11.428Z,15.10
2023-08-17T22:48:38.027Z,15.30
2023-08-17T22:51:04.527Z,14.20
2023-08-17T22:53:30.924Z,17.00
2023-08-17T22:55:57.352Z,15.20
2023-08-17T22:58:23.807Z,15.40
2023-08-17T23:00:50.353Z,13.70
2023-08-17T23:03:17.397Z,14.80
2023-08-17T23:05:44.692Z,13.40
2023-08-17T23:08:11.182Z,17.90
2023-08-17T23:10:37.933Z,17.60
2023-08-17T23:13:04.727Z,18.10
2023-08-17T23:15:31.135Z,16.30
2023-08-17T23:17:57.751Z,15.50
2023-08-17T23:20:24.334Z,15.80
2023-08-17T23:22:50.746Z,18.40
2023-08-17T23:25:17.282Z,19.90
2023-08-17T23:27:47.943Z,15.90
2023-08-17T23:30:14.434Z,16.60
2023-08-17T23:32:40.852Z,16.00
2023-08-17T23:35:08.301Z,18.20
2023-08-17T23:37:34.717Z,18.50
2023-08-17T23:40:07.184Z,18.20
2023-08-17T23:42:33.696Z,18.90
2023-08-17T23:45:00.152Z,17.00
2023-08-17T23:47:26.893Z,17.40
2023-08-17T23:49:53.975Z,14.60
2023-08-17T23:52:20.408Z,13.70
2023-08-17T23:54:46.809Z,12.10
2023-08-17T23:57:13.283Z,9.60
2023-08-17T23:59:39.673Z,9.90
